createdAt,value
2019-01-25T00:00:32.389Z,99.32
2019-01-25T00:01:32.354Z,99.7
2019-01-25T00:02:32.759Z,99.32
2019-01-25T00:03:33.250Z,99.32
2019-01-25T00:04:33.924Z,99.22
2019-01-25T00:05:34.617Z,99.22
2019-01-25T00:06:35.573Z,99.7
2019-01-25T00:07:35.533Z,99.41
2019-01-25T00:08:36.627Z,99.32
2019-01-25T00:09:37.031Z,99.32
2019-01-25T00:10:37.434Z,99.6
2019-01-25T00:11:37.836Z,99.51
2019-01-25T00:12:38.793Z,99.88
2019-01-25T00:13:38.920Z,98.85
2019-01-25T00:14:40.603Z,99.6
2019-01-25T00:15:40.726Z,99.41
2019-01-25T00:16:42.136Z,99.41
2019-01-25T00:17:42.538Z,99.99
2019-01-25T00:18:43.635Z,99.99
2019-01-25T00:19:44.315Z,99.98
2019-01-25T00:20:45.278Z,99.88
2019-01-25T00:21:45.962Z,99.7
2019-01-25T00:22:47.201Z,99.79
2019-01-25T00:23:47.964Z,99.99
2019-01-25T00:24:48.577Z,99.99
2019-01-25T00:25:49.700Z,99.99
2019-01-25T00:26:50.659Z,99.99
2019-01-25T00:27:51.342Z,99.99
2019-01-25T00:28:52.466Z,99.7
2019-01-25T00:29:53.169Z,99.99
2019-01-25T00:30:53.863Z,99.99
2019-01-25T00:31:55.266Z,99.99
2019-01-25T00:32:55.946Z,99.99
2019-01-25T00:33:56.361Z,99.99
2019-01-25T00:34:57.043Z,99.98
2019-01-25T00:35:57.445Z,99.98
2019-01-25T00:36:58.164Z,99.99
2019-01-25T00:37:58.570Z,99.99
2019-01-25T00:38:59.413Z,99.99
2019-01-25T00:40:07.336Z,99.99
2019-01-25T00:40:11.824Z,99.99
2019-01-25T00:41:12.630Z,99.99
2019-01-25T00:42:12.754Z,99.99
2019-01-25T00:43:13.882Z,99.99
2019-01-25T00:44:15.011Z,99.99
2019-01-25T00:45:15.413Z,99.99
2019-01-25T00:46:16.112Z,99.99
2019-01-25T00:47:16.391Z,99.99
2019-01-25T00:48:17.810Z,99.99
2019-01-25T00:49:18.216Z,99.99
2019-01-25T00:50:19.378Z,99.99
2019-01-25T00:51:20.459Z,99.99
2019-01-25T00:52:21.159Z,99.99
2019-01-25T00:53:22.114Z,99.99
2019-01-25T00:54:22.237Z,99.99
2019-01-25T00:55:22.917Z,99.99
2019-01-25T00:56:23.644Z,99.99
2019-01-25T00:57:24.048Z,99.99
2019-01-25T00:58:25.042Z,99.99
2019-01-25T00:59:25.442Z,99.99
2019-01-25T01:00:25.847Z,99.99
2019-01-25T01:01:28.338Z,99.99
2019-01-25T01:02:28.490Z,99.99
2019-01-25T01:03:29.176Z,99.99
2019-01-25T01:04:30.140Z,99.99
2019-01-25T01:05:30.823Z,99.99
2019-01-25T01:06:30.947Z,99.99
2019-01-25T01:07:31.905Z,99.99
2019-01-25T01:08:32.322Z,99.99
2019-01-25T01:09:33.006Z,99.99
2019-01-25T01:10:33.405Z,99.99
2019-01-25T01:11:33.801Z,99.99
2019-01-25T01:12:34.758Z,99.99
2019-01-25T01:13:34.884Z,99.99
2019-01-25T01:14:36.120Z,99.99
2019-01-25T01:15:36.852Z,99.99
2019-01-25T01:16:37.007Z,99.99
2019-01-25T01:17:37.410Z,99.99
2019-01-25T01:18:37.822Z,99.99
2019-01-25T01:19:38.499Z,99.99
2019-01-25T01:20:39.625Z,99.99
2019-01-25T01:21:40.715Z,99.99
2019-01-25T01:22:42.119Z,99.99
2019-01-25T01:23:43.356Z,99.99
2019-01-25T01:24:43.759Z,99.99
2019-01-25T01:25:44.726Z,99.99
2019-01-25T01:26:44.860Z,99.99
2019-01-25T01:27:46.270Z,99.99
2019-01-25T01:28:47.231Z,99.99
2019-01-25T01:29:47.997Z,99.99
2019-01-25T01:30:48.964Z,99.99
2019-01-25T01:31:50.066Z,99.99
2019-01-25T01:32:50.506Z,99.99
2019-01-25T01:33:51.466Z,99.99
2019-01-25T01:34:52.146Z,99.99
2019-01-25T01:35:52.321Z,99.99
2019-01-25T01:36:53.005Z,99.99
2019-01-25T01:37:53.967Z,99.99
2019-01-25T01:38:55.093Z,99.99
2019-01-25T01:39:56.220Z,99.99
2019-01-25T01:40:57.626Z,99.99
2019-01-25T01:41:57.723Z,99.99
2019-01-25T01:42:58.855Z,99.99
2019-01-25T01:43:59.560Z,99.99
2019-01-25T01:45:00.523Z,99.99
2019-01-25T01:46:01.491Z,99.99
2019-01-25T01:47:02.498Z,99.99
2019-01-25T01:48:02.494Z,99.99
2019-01-25T01:49:02.621Z,99.99
2019-01-25T01:50:04.031Z,99.99
2019-01-25T01:51:04.712Z,99.99
2019-01-25T01:52:04.803Z,99.99
2019-01-25T01:53:05.764Z,99.99
2019-01-25T01:54:06.724Z,99.99
2019-01-25T01:55:06.965Z,99.99
2019-01-25T01:56:06.926Z,99.99
2019-01-25T01:57:07.332Z,99.99
2019-01-25T01:58:07.735Z,99.99
2019-01-25T01:59:08.426Z,99.99
2019-01-25T02:00:09.116Z,99.99
2019-01-25T02:01:10.260Z,99.99
2019-01-25T02:02:10.624Z,99.99
2019-01-25T02:03:11.307Z,99.99
2019-01-25T02:04:11.711Z,99.99
2019-01-25T02:05:12.951Z,99.99
2019-01-25T02:06:13.354Z,99.99
2019-01-25T02:07:14.048Z,99.99
2019-01-25T02:08:15.178Z,99.99
2019-01-25T02:09:15.586Z,99.99
2019-01-25T02:10:16.546Z,99.99
2019-01-25T02:11:17.533Z,99.99
2019-01-25T02:12:17.626Z,99.99
2019-01-25T02:13:19.139Z,99.99
2019-01-25T02:14:19.100Z,99.99
2019-01-25T02:15:19.778Z,99.99
2019-01-25T02:16:20.185Z,99.99
2019-01-25T02:17:21.869Z,99.99
2019-01-25T02:18:22.276Z,99.99
2019-01-25T02:19:23.242Z,99.99
2019-01-25T02:20:23.648Z,99.99
2019-01-25T02:21:24.369Z,99.99
2019-01-25T02:22:24.900Z,99.99
2019-01-25T02:23:26.026Z,99.99
2019-01-25T02:24:26.715Z,99.99
2019-01-25T02:25:27.404Z,99.99
2019-01-25T02:26:27.811Z,99.99
2019-01-25T02:27:28.496Z,99.99
2019-01-25T02:28:28.625Z,99.99
2019-01-25T02:29:29.307Z,99.99
2019-01-25T02:30:30.564Z,99.99
2019-01-25T02:31:30.971Z,99.99
2019-01-25T02:32:31.647Z,99.99
2019-01-25T02:33:32.051Z,99.99
2019-01-25T02:34:32.295Z,99.99
2019-01-25T02:35:32.813Z,99.99
2019-01-25T02:36:33.810Z,99.99
2019-01-25T02:37:34.541Z,99.99
2019-01-25T02:38:34.943Z,99.99
2019-01-25T02:39:35.906Z,99.99
2019-01-25T02:40:40.348Z,99.99
2019-01-25T02:41:40.754Z,99.99
2019-01-25T02:42:42.419Z,99.99
2019-01-25T02:43:43.119Z,99.99
2019-01-25T02:44:44.084Z,99.99
2019-01-25T02:45:44.767Z,99.99
2019-01-25T02:46:44.907Z,99.99
2019-01-25T02:47:45.150Z,99.99
2019-01-25T02:48:46.674Z,99.99
2019-01-25T02:49:47.354Z,99.99
2019-01-25T02:50:48.039Z,99.99
2019-01-25T02:51:49.116Z,99.99
2019-01-25T02:52:49.483Z,99.99
2019-01-25T02:53:49.744Z,99.99
2019-01-25T02:54:50.717Z,99.99
2019-01-25T02:55:51.680Z,99.99
2019-01-25T02:56:51.918Z,99.99
2019-01-25T02:57:52.324Z,99.99
2019-01-25T02:58:53.303Z,99.99
2019-01-25T02:59:53.823Z,99.88
2019-01-25T03:00:54.505Z,99.98
2019-01-25T03:01:54.905Z,99.99
2019-01-25T03:02:56.196Z,99.99
2019-01-25T03:03:56.610Z,99.79
2019-01-25T03:04:57.057Z,99.84
2019-01-25T03:05:58.861Z,99.99
2019-01-25T03:06:58.824Z,99.99
2019-01-25T03:08:00.064Z,99.99
2019-01-25T03:09:01.305Z,99.93
2019-01-25T03:10:02.285Z,99.99
2019-01-25T03:11:02.242Z,99.99
2019-01-25T03:12:02.765Z,99.99
2019-01-25T03:13:03.575Z,99.99
2019-01-25T03:14:04.097Z,99.93
2019-01-25T03:15:05.065Z,99.99
2019-01-25T03:16:05.470Z,99.99
2019-01-25T03:17:06.164Z,99.93
2019-01-25T03:18:07.119Z,99.93
2019-01-25T03:19:07.844Z,99.18
2019-01-25T03:20:08.815Z,99.18
2019-01-25T03:21:08.550Z,99.37
2019-01-25T03:22:09.682Z,99.08
2019-01-25T03:23:11.075Z,98.8
2019-01-25T03:24:10.773Z,99.37
2019-01-25T03:25:11.740Z,99.74
2019-01-25T03:26:12.699Z,99.08
2019-01-25T03:27:13.654Z,99.84
2019-01-25T03:28:14.070Z,98.9
2019-01-25T03:29:15.203Z,98.71
2019-01-25T03:30:15.650Z,98.71
2019-01-25T03:31:17.496Z,98.71
2019-01-25T03:32:18.359Z,98.8
2019-01-25T03:33:19.003Z,99.18
2019-01-25T03:34:20.160Z,98.9
2019-01-25T03:35:21.119Z,99.46
2019-01-25T03:36:21.091Z,99.08
2019-01-25T03:37:22.056Z,99.74
2019-01-25T03:38:23.029Z,99.65
2019-01-25T03:39:24.267Z,99.93
2019-01-25T03:40:24.951Z,99.99
2019-01-25T03:41:25.375Z,99.99
2019-01-25T03:42:25.781Z,99.93
2019-01-25T03:43:26.731Z,99.74
2019-01-25T03:44:27.413Z,99.55
2019-01-25T03:45:28.662Z,99.84
2019-01-25T03:46:29.063Z,99.93
2019-01-25T03:47:30.744Z,99.65
2019-01-25T03:48:31.156Z,99.46
2019-01-25T03:49:32.117Z,99.99
2019-01-25T03:50:32.081Z,98.9
2019-01-25T03:51:32.767Z,99.55
2019-01-25T03:52:33.465Z,99.37
2019-01-25T03:53:34.240Z,99.27
2019-01-25T03:54:34.368Z,99.74
2019-01-25T03:55:35.776Z,98.99
2019-01-25T03:56:36.180Z,99.65
2019-01-25T03:57:36.862Z,99.27
2019-01-25T03:58:37.551Z,99.74
2019-01-25T03:59:37.957Z,99.74
2019-01-25T04:00:39.930Z,99.84
2019-01-25T04:01:39.892Z,99.74
2019-01-25T04:02:40.871Z,99.93
2019-01-25T04:03:41.235Z,98.8
2019-01-25T04:04:41.918Z,98.8
2019-01-25T04:05:42.323Z,98.9
2019-01-25T04:06:43.456Z,98.8
2019-01-25T04:07:44.809Z,99.08
2019-01-25T04:08:46.325Z,99.93
2019-01-25T04:09:46.734Z,98.99
2019-01-25T04:10:47.418Z,98.99
2019-01-25T04:11:48.448Z,98.8
2019-01-25T04:12:48.866Z,99.18
2019-01-25T04:13:49.983Z,98.99
2019-01-25T04:14:50.665Z,98.99
2019-01-25T04:15:51.070Z,99.18
2019-01-25T04:16:52.038Z,98.8
2019-01-25T04:17:53.003Z,98.71
2019-01-25T04:18:53.525Z,99.08
2019-01-25T04:19:54.217Z,99.18
2019-01-25T04:20:55.190Z,98.99
2019-01-25T04:21:55.873Z,98.8
2019-01-25T04:22:56.830Z,98.99
2019-01-25T04:23:57.364Z,99.27
2019-01-25T04:24:58.332Z,98.99
2019-01-25T04:25:58.800Z,99.27
2019-01-25T04:26:59.485Z,99.46
2019-01-25T04:28:00.172Z,98.99
2019-01-25T04:29:00.428Z,99.08
2019-01-25T04:30:01.398Z,99.08
2019-01-25T04:31:01.957Z,99.18
2019-01-25T04:32:02.194Z,99.55
2019-01-25T04:33:03.634Z,99.65
2019-01-25T04:34:04.024Z,99.84
2019-01-25T04:35:05.715Z,99.08
2019-01-25T04:36:06.406Z,98.71
2019-01-25T04:37:06.831Z,98.61
2019-01-25T04:38:07.509Z,98.14
2019-01-25T04:39:07.931Z,97.29
2019-01-25T04:40:08.899Z,97
2019-01-25T04:41:12.957Z,97.38
2019-01-25T04:42:13.639Z,97.72
2019-01-25T04:43:14.047Z,97.29
2019-01-25T04:44:15.140Z,97.53
2019-01-25T04:45:16.141Z,97.34
2019-01-25T04:46:16.658Z,97.91
2019-01-25T04:47:17.898Z,97.62
2019-01-25T04:48:18.305Z,97.62
2019-01-25T04:49:18.708Z,97.24
2019-01-25T04:50:21.011Z,96.49
2019-01-25T04:51:20.718Z,96.63
2019-01-25T04:52:22.149Z,97.38
2019-01-25T04:53:23.385Z,97.76
2019-01-25T04:54:23.499Z,98.28
2019-01-25T04:55:24.192Z,98.42
2019-01-25T04:56:25.046Z,97.48
2019-01-25T04:57:25.586Z,97.57
2019-01-25T04:58:25.560Z,97.38
2019-01-25T04:59:25.967Z,98.33
2019-01-25T05:00:26.740Z,97.57
2019-01-25T05:01:27.002Z,98.33
2019-01-25T05:02:28.964Z,98.42
2019-01-25T05:03:29.528Z,98.61
2019-01-25T05:04:30.347Z,98.8
2019-01-25T05:05:31.037Z,98.8
2019-01-25T05:06:32.284Z,99.37
2019-01-25T05:07:33.002Z,99.84
2019-01-25T05:08:33.520Z,98.99
2019-01-25T05:09:33.929Z,99.27
2019-01-25T05:10:34.353Z,98.8
2019-01-25T05:11:34.862Z,99.37
2019-01-25T05:12:35.822Z,99.74
2019-01-25T05:13:36.508Z,99.74
2019-01-25T05:14:37.188Z,99.93
2019-01-25T05:15:37.426Z,99.46
2019-01-25T05:16:38.185Z,99.84
2019-01-25T05:17:39.314Z,99.65
2019-01-25T05:18:40.451Z,99.27
2019-01-25T05:19:41.447Z,99.18
2019-01-25T05:20:41.856Z,99.08
2019-01-25T05:21:43.115Z,99.99
2019-01-25T05:22:43.798Z,99.93
2019-01-25T05:23:44.481Z,99.37
2019-01-25T05:24:45.297Z,99.74
2019-01-25T05:25:46.029Z,98.9
2019-01-25T05:26:47.292Z,99.37
2019-01-25T05:27:47.979Z,99.46
2019-01-25T05:28:48.737Z,99.74
2019-01-25T05:29:49.164Z,99.99
2019-01-25T05:30:50.424Z,99.93
2019-01-25T05:31:50.828Z,99.84
2019-01-25T05:32:51.955Z,99.99
2019-01-25T05:33:52.198Z,99.74
2019-01-25T05:34:53.006Z,99.46
2019-01-25T05:35:53.970Z,99.46
2019-01-25T05:36:55.377Z,99.18
2019-01-25T05:37:56.059Z,98.71
2019-01-25T05:38:56.463Z,99.46
2019-01-25T05:39:57.711Z,98.61
2019-01-25T05:40:59.235Z,97.95
2019-01-25T05:41:59.929Z,98.23
2019-01-25T05:43:01.179Z,98.71
2019-01-25T05:44:01.890Z,98.8
2019-01-25T05:45:02.819Z,99.18
2019-01-25T05:46:03.233Z,98.99
2019-01-25T05:47:03.916Z,98.99
2019-01-25T05:48:04.322Z,99.08
2019-01-25T05:49:05.291Z,98.52
2019-01-25T05:50:05.977Z,98.71
2019-01-25T05:51:06.939Z,99.18
2019-01-25T05:52:07.910Z,98.52
2019-01-25T05:53:08.601Z,98.99
2019-01-25T05:54:09.291Z,99.04
2019-01-25T05:55:10.936Z,99.22
2019-01-25T05:56:11.617Z,98.94
2019-01-25T05:57:12.596Z,99.22
2019-01-25T05:58:12.723Z,98.94
2019-01-25T05:59:13.128Z,99.22
2019-01-25T06:00:13.532Z,99.13
2019-01-25T06:01:14.213Z,98.75
2019-01-25T06:02:14.900Z,98.94
2019-01-25T06:03:15.862Z,98.28
2019-01-25T06:04:16.553Z,98.28
2019-01-25T06:05:17.375Z,98.47
2019-01-25T06:06:18.620Z,98.14
2019-01-25T06:07:19.581Z,98.8
2019-01-25T06:08:20.268Z,98.99
2019-01-25T06:09:20.402Z,99.88
2019-01-25T06:10:21.093Z,99.74
2019-01-25T06:11:21.776Z,98.94
2019-01-25T06:12:22.768Z,98.94
2019-01-25T06:13:23.174Z,99.04
2019-01-25T06:14:24.594Z,99.13
2019-01-25T06:15:24.978Z,99.04
2019-01-25T06:16:25.976Z,99.04
2019-01-25T06:17:26.654Z,98.94
2019-01-25T06:18:28.340Z,98.85
2019-01-25T06:19:29.028Z,99.32
2019-01-25T06:20:30.282Z,99.04
2019-01-25T06:21:30.987Z,99.41
2019-01-25T06:22:31.668Z,99.37
2019-01-25T06:23:32.798Z,99.74
2019-01-25T06:24:33.478Z,99.84
2019-01-25T06:25:34.605Z,99.93
2019-01-25T06:26:35.301Z,99.99
2019-01-25T06:27:36.427Z,99.93
2019-01-25T06:28:38.108Z,99.27
2019-01-25T06:29:38.072Z,99.18
2019-01-25T06:30:38.500Z,98.9
2019-01-25T06:31:38.902Z,99.84
2019-01-25T06:32:40.316Z,99.99
2019-01-25T06:33:41.723Z,99.99
2019-01-25T06:34:42.967Z,99.99
2019-01-25T06:35:43.221Z,99.99
2019-01-25T06:36:43.741Z,99.84
2019-01-25T06:37:44.152Z,99.99
2019-01-25T06:38:44.836Z,99.99
2019-01-25T06:39:45.968Z,99.99
2019-01-25T06:40:46.648Z,99.99
2019-01-25T06:41:47.331Z,99.99
2019-01-25T06:42:48.615Z,99.99
2019-01-25T06:43:49.297Z,99.93
2019-01-25T06:44:49.705Z,99.99
2019-01-25T06:45:50.709Z,99.99
2019-01-25T06:46:51.395Z,99.99
2019-01-25T06:47:52.077Z,99.99
2019-01-25T06:48:52.520Z,99.99
2019-01-25T06:49:52.928Z,99.99
2019-01-25T06:50:53.614Z,99.99
2019-01-25T06:51:53.744Z,99.99
2019-01-25T06:52:55.155Z,99.99
2019-01-25T06:53:55.563Z,99.99
2019-01-25T06:54:56.985Z,99.99
2019-01-25T06:55:57.339Z,99.99
2019-01-25T06:56:58.697Z,99.99
2019-01-25T06:58:00.395Z,99.99
2019-01-25T06:59:01.505Z,99.99
2019-01-25T07:00:02.092Z,99.99
2019-01-25T07:01:03.157Z,99.99
2019-01-25T07:02:03.647Z,99.99
2019-01-25T07:03:04.907Z,99.99
2019-01-25T07:04:06.577Z,99.99
2019-01-25T07:05:07.276Z,99.99
2019-01-25T07:06:06.897Z,99.99
2019-01-25T07:07:08.139Z,99.99
2019-01-25T07:08:08.867Z,99.99
2019-01-25T07:09:09.813Z,99.99
2019-01-25T07:10:10.952Z,99.99
2019-01-25T07:11:11.650Z,99.99
2019-01-25T07:12:12.117Z,99.99
2019-01-25T07:13:12.865Z,99.99
2019-01-25T07:14:13.322Z,99.99
2019-01-25T07:15:13.758Z,99.99
2019-01-25T07:16:14.293Z,99.99
2019-01-25T07:17:15.700Z,99.99
2019-01-25T07:18:17.018Z,99.99
2019-01-25T07:19:17.560Z,99.99
2019-01-25T07:20:18.168Z,99.99
2019-01-25T07:21:19.136Z,99.99
2019-01-25T07:22:19.831Z,99.99
2019-01-25T07:23:20.057Z,99.99
2019-01-25T07:24:21.472Z,99.99
2019-01-25T07:25:22.158Z,99.99
2019-01-25T07:26:22.966Z,99.99
2019-01-25T07:27:23.746Z,99.99
2019-01-25T07:28:24.680Z,99.99
2019-01-25T07:29:25.405Z,99.99
2019-01-25T07:30:25.469Z,99.99
2019-01-25T07:31:26.980Z,99.99
2019-01-25T07:32:27.097Z,99.99
2019-01-25T07:33:27.905Z,99.99
2019-01-25T07:34:28.867Z,99.99
2019-01-25T07:35:29.535Z,99.99
2019-01-25T07:36:30.914Z,99.99
2019-01-25T07:37:31.414Z,99.99
2019-01-25T07:38:32.280Z,99.99
2019-01-25T07:39:33.238Z,99.99
2019-01-25T07:40:34.110Z,99.99
2019-01-25T07:41:34.808Z,99.99
2019-01-25T07:42:34.737Z,99.99
2019-01-25T07:43:36.472Z,99.99
2019-01-25T07:44:37.607Z,99.99
2019-01-25T07:45:38.362Z,99.99
2019-01-25T07:46:39.296Z,99.99
2019-01-25T07:47:40.275Z,99.99
2019-01-25T07:48:40.952Z,99.99
2019-01-25T07:49:42.124Z,99.99
2019-01-25T07:50:42.673Z,99.99
2019-01-25T07:51:42.895Z,99.99
2019-01-25T07:52:44.220Z,99.99
2019-01-25T07:53:44.050Z,99.99
2019-01-25T07:54:45.097Z,99.99
2019-01-25T07:55:46.008Z,99.99
2019-01-25T07:56:46.576Z,99.99
2019-01-25T07:57:47.453Z,99.99
2019-01-25T07:58:48.417Z,99.99
2019-01-25T07:59:49.203Z,99.99
2019-01-25T08:00:49.963Z,99.99
2019-01-25T08:01:51.069Z,99.99
2019-01-25T08:02:52.141Z,99.99
2019-01-25T08:03:52.167Z,99.99
2019-01-25T08:04:52.933Z,99.99
2019-01-25T08:05:53.678Z,99.99
2019-01-25T08:06:54.016Z,99.99
2019-01-25T08:07:54.756Z,99.99
2019-01-25T08:08:55.354Z,99.99
2019-01-25T08:09:56.086Z,99.99
2019-01-25T08:10:56.270Z,99.99
2019-01-25T08:11:56.858Z,99.99
2019-01-25T08:12:09.125Z,99.99
2019-01-25T08:13:08.963Z,99.84
2019-01-25T08:14:09.781Z,99.99
2019-01-25T08:15:10.792Z,99.99
2019-01-25T08:16:11.528Z,99.99
2019-01-25T08:17:12.397Z,99.99
2019-01-25T08:18:13.334Z,99.99
2019-01-25T08:19:14.662Z,99.99
2019-01-25T08:20:15.561Z,99.99
2019-01-25T08:21:16.363Z,99.99
2019-01-25T08:22:17.447Z,99.99
2019-01-25T08:23:18.042Z,99.74
2019-01-25T08:24:21.736Z,99.99
2019-01-25T08:24:32.745Z,99.84
2019-01-25T08:24:45.899Z,99.99
2019-01-25T08:24:57.922Z,99.93
2019-01-25T08:25:09.571Z,99.99
2019-01-25T08:26:08.581Z,99.99
2019-01-25T08:27:09.379Z,99.99
2019-01-25T08:28:10.785Z,99.99
2019-01-25T08:29:11.551Z,99.99
2019-01-25T08:30:12.242Z,99.99
2019-01-25T08:31:12.928Z,99.99
2019-01-25T08:32:13.699Z,99.88
2019-01-25T08:33:14.868Z,99.88
2019-01-25T08:34:14.909Z,99.99
2019-01-25T08:35:16.307Z,99.99
2019-01-25T08:36:17.113Z,99.99
2019-01-25T08:37:18.046Z,99.99
2019-01-25T08:38:19.410Z,99.98
2019-01-25T08:39:20.470Z,99.88
2019-01-25T08:40:21.225Z,99.99
2019-01-25T08:41:22.709Z,99.99
2019-01-25T08:42:23.882Z,99.99
2019-01-25T08:43:24.037Z,99.99
2019-01-25T08:44:24.709Z,99.99
2019-01-25T08:45:25.880Z,99.88
2019-01-25T08:46:26.999Z,99.99
2019-01-25T08:47:27.422Z,99.99
2019-01-25T08:48:30.359Z,99.99
2019-01-25T08:49:32.036Z,99.99
2019-01-25T08:50:34.028Z,99.99
2019-01-25T08:51:34.042Z,99.99
2019-01-25T08:52:35.310Z,99.99
2019-01-25T08:53:35.846Z,99.99
2019-01-25T08:54:36.423Z,99.99
2019-01-25T08:55:36.933Z,99.99
2019-01-25T08:56:37.722Z,99.99
2019-01-25T08:57:38.506Z,99.99
2019-01-25T08:58:38.747Z,99.99
2019-01-25T08:59:39.937Z,99.99
2019-01-25T08:59:51.895Z,99.99
2019-01-25T09:00:53.197Z,99.99
2019-01-25T09:01:53.580Z,99.99
2019-01-25T09:02:54.373Z,99.99
2019-01-25T09:03:54.851Z,99.99
2019-01-25T09:04:55.542Z,99.99
2019-01-25T09:05:56.790Z,99.99
2019-01-25T09:06:57.254Z,99.99
2019-01-25T09:07:57.945Z,99.99
2019-01-25T09:08:58.990Z,99.99
2019-01-25T09:09:59.595Z,99.99
2019-01-25T09:11:00.827Z,99.99
2019-01-25T09:12:01.918Z,99.88
2019-01-25T09:13:02.924Z,99.99
2019-01-25T09:14:04.091Z,99.98
2019-01-25T09:15:04.870Z,99.6
2019-01-25T09:16:06.002Z,99.79
2019-01-25T09:17:07.137Z,99.99
2019-01-25T09:18:08.834Z,99.99
2019-01-25T09:19:09.923Z,99.99
2019-01-25T09:20:15.856Z,99.99
2019-01-25T09:20:23.458Z,99.99
2019-01-25T09:21:24.669Z,99.99
2019-01-25T09:22:25.123Z,99.99
2019-01-25T09:23:25.668Z,99.98
2019-01-25T09:24:26.258Z,99.99
2019-01-25T09:25:27.223Z,99.99
2019-01-25T09:26:28.325Z,99.99
2019-01-25T09:27:29.369Z,99.99
2019-01-25T09:28:30.661Z,99.99
2019-01-25T09:29:30.945Z,99.99
2019-01-25T09:30:31.883Z,99.99
2019-01-25T09:31:32.284Z,99.99
2019-01-25T09:32:32.296Z,99.99
2019-01-25T09:33:32.883Z,99.99
2019-01-25T09:34:33.748Z,99.99
2019-01-25T09:35:34.164Z,99.99
2019-01-25T09:36:34.575Z,99.46
2019-01-25T09:37:35.673Z,99.46
2019-01-25T09:38:37.088Z,99.94
2019-01-25T09:39:37.834Z,99.99
2019-01-25T09:40:38.477Z,99.99
2019-01-25T09:41:40.629Z,99.75
2019-01-25T09:42:41.350Z,99.46
2019-01-25T09:43:41.692Z,98.99
2019-01-25T09:44:41.996Z,99.46
2019-01-25T09:45:42.689Z,98.8
2019-01-25T09:46:43.103Z,98.66
2019-01-25T09:47:44.242Z,98.57
2019-01-25T09:48:44.416Z,97.91
2019-01-25T09:49:44.837Z,97.53
2019-01-25T09:50:57.544Z,97.34
2019-01-25T09:51:58.241Z,97.63
2019-01-25T09:52:58.850Z,97.72
2019-01-25T09:53:59.362Z,97.53
2019-01-25T09:55:00.193Z,97.72
2019-01-25T09:56:01.170Z,96.68
2019-01-25T09:57:01.861Z,96.78
2019-01-25T09:58:03.108Z,96.96
2019-01-25T09:59:03.471Z,96.96
2019-01-25T10:00:04.515Z,96.68
2019-01-25T10:01:04.731Z,96.87
2019-01-25T10:02:05.472Z,97.67
2019-01-25T10:03:05.430Z,97.48
2019-01-25T10:04:06.252Z,96.73
2019-01-25T10:05:07.190Z,96.16
2019-01-25T10:06:07.879Z,96.06
2019-01-25T10:07:09.397Z,96.06
2019-01-25T10:08:10.509Z,96.63
2019-01-25T10:09:10.657Z,96.54
2019-01-25T10:10:11.743Z,96.54
2019-01-25T10:11:12.839Z,96.16
2019-01-25T10:12:13.231Z,92.99
2019-01-25T10:13:13.898Z,92.33
2019-01-25T10:14:15.216Z,91.01
2019-01-25T10:15:15.823Z,91.01
2019-01-25T10:16:16.462Z,91.2
2019-01-25T10:17:16.892Z,91.2
2019-01-25T10:18:17.083Z,90.82
2019-01-25T10:19:18.058Z,89.64
2019-01-25T10:20:18.704Z,88.22
2019-01-25T10:21:19.356Z,85.33
2019-01-25T10:22:20.262Z,83.34
2019-01-25T10:23:21.271Z,81.7
2019-01-25T10:24:22.159Z,80.65
2019-01-25T10:25:22.439Z,81.6
2019-01-25T10:26:22.863Z,79.09
2019-01-25T10:27:23.446Z,78.23
2019-01-25T10:28:23.890Z,79.33
2019-01-25T10:29:24.318Z,80.84
2019-01-25T10:30:24.813Z,78.8
2019-01-25T10:31:26.149Z,77.39
2019-01-25T10:32:27.661Z,76.15
2019-01-25T10:33:28.876Z,75.87
2019-01-25T10:34:30.067Z,73.88
2019-01-25T10:35:32.414Z,73.98
2019-01-25T10:36:33.390Z,73.32
2019-01-25T10:37:33.653Z,73.22
2019-01-25T10:38:34.344Z,73.69
2019-01-25T10:39:35.519Z,72.94
2019-01-25T10:40:36.184Z,71.99
2019-01-25T10:41:36.942Z,71.71
2019-01-25T10:42:54.501Z,70.29
2019-01-25T10:43:02.788Z,70.54
2019-01-25T10:44:02.768Z,70.06
2019-01-25T10:45:06.123Z,69.97
2019-01-25T10:46:06.621Z,71.42
2019-01-25T10:47:07.357Z,71.61
2019-01-25T10:48:08.609Z,69.82
2019-01-25T10:49:08.861Z,68.46
2019-01-25T10:50:10.280Z,68.65
2019-01-25T10:51:11.709Z,69.59
2019-01-25T10:52:12.154Z,70.16
2019-01-25T10:53:12.936Z,69.59
2019-01-25T10:54:14.313Z,69.46
2019-01-25T10:55:14.837Z,69.46
2019-01-25T10:56:15.204Z,70.31
2019-01-25T10:57:15.624Z,70.03
2019-01-25T10:58:17.203Z,69.74
2019-01-25T10:59:17.477Z,70.59
2019-01-25T11:00:18.567Z,69.56
2019-01-25T11:01:19.573Z,69.27
2019-01-25T11:02:20.358Z,69.09
2019-01-25T11:03:21.178Z,68.61
2019-01-25T11:04:22.265Z,69.09
2019-01-25T11:05:22.812Z,69.46
2019-01-25T11:06:24.316Z,69.46
2019-01-25T11:07:24.626Z,69.27
2019-01-25T11:08:25.036Z,68.33
2019-01-25T11:09:26.491Z,68.14
2019-01-25T11:10:28.012Z,68.42
2019-01-25T11:11:27.773Z,68.42
2019-01-25T11:12:29.717Z,69.18
2019-01-25T11:13:29.335Z,69.37
2019-01-25T11:14:29.955Z,69.74
2019-01-25T11:15:30.559Z,69.37
2019-01-25T11:16:31.996Z,69.56
2019-01-25T11:17:37.743Z,69.37
2019-01-25T11:17:43.905Z,69.27
2019-01-25T11:18:44.169Z,69.56
2019-01-25T11:19:44.593Z,69.37
2019-01-25T11:20:45.874Z,69.27
2019-01-25T11:21:46.858Z,68.71
2019-01-25T11:22:47.827Z,68.04
2019-01-25T11:23:48.581Z,67.57
2019-01-25T11:24:49.129Z,67.76
2019-01-25T11:25:49.575Z,67.47
2019-01-25T11:26:50.213Z,67.38
2019-01-25T11:27:51.519Z,67.66
2019-01-25T11:28:52.006Z,68.14
2019-01-25T11:29:52.784Z,68.04
2019-01-25T11:30:53.682Z,68.04
2019-01-25T11:31:54.265Z,67.95
2019-01-25T11:32:54.676Z,68.42
2019-01-25T11:33:55.479Z,68.33
2019-01-25T11:34:55.899Z,68.33
2019-01-25T11:35:59.813Z,68.04
2019-01-25T11:36:10.872Z,68.14
2019-01-25T11:36:23.963Z,68.14
2019-01-25T11:37:25.281Z,67.57
2019-01-25T11:37:36.080Z,68.23
2019-01-25T11:37:49.557Z,67.57
2019-01-25T11:38:49.518Z,67.38
2019-01-25T11:39:51.680Z,67.47
2019-01-25T11:40:02.557Z,67.19
2019-01-25T11:41:03.293Z,67
2019-01-25T11:42:02.820Z,67.66
2019-01-25T11:43:11.722Z,67.66
2019-01-25T11:43:17.640Z,67.19
2019-01-25T11:44:16.930Z,67.95
2019-01-25T11:45:19.186Z,68.04
2019-01-25T11:46:23.611Z,68.42
2019-01-25T11:46:33.099Z,68.33
2019-01-25T11:47:32.987Z,68.33
2019-01-25T11:48:33.956Z,67.47
2019-01-25T11:49:34.369Z,66.16
2019-01-25T11:50:34.781Z,65.87
2019-01-25T11:51:36.273Z,66.16
2019-01-25T11:52:36.859Z,67.1
2019-01-25T11:53:37.547Z,66.63
2019-01-25T11:54:38.564Z,66.16
2019-01-25T11:55:39.308Z,66.91
2019-01-25T11:56:40.283Z,66.35
2019-01-25T11:57:41.521Z,66.53
2019-01-25T11:58:42.780Z,65.49
2019-01-25T11:59:43.023Z,66.06
2019-01-25T12:00:44.624Z,66.72
2019-01-25T12:01:45.039Z,66.72
2019-01-25T12:02:46.518Z,65.21
2019-01-25T12:03:48.609Z,65.78
2019-01-25T12:04:48.367Z,65.49
2019-01-25T12:05:49.339Z,65.3
2019-01-25T12:06:50.756Z,64.83
2019-01-25T12:07:50.933Z,64.54
2019-01-25T12:08:51.903Z,65.4
2019-01-25T12:09:53.040Z,65.21
2019-01-25T12:10:54.457Z,64.36
2019-01-25T12:11:54.868Z,64.45
2019-01-25T12:12:55.561Z,64.83
2019-01-25T12:13:55.816Z,64.58
2019-01-25T12:14:59.232Z,64.64
2019-01-25T12:15:10.601Z,64.26
2019-01-25T12:15:21.834Z,64.2
2019-01-25T12:16:23.836Z,64.54
2019-01-25T12:17:23.503Z,65.15
2019-01-25T12:18:24.953Z,65.81
2019-01-25T12:19:25.866Z,65.34
2019-01-25T12:20:28.586Z,64.86
2019-01-25T12:21:28.366Z,64.77
2019-01-25T12:22:29.563Z,64.39
2019-01-25T12:23:29.876Z,63.82
2019-01-25T12:24:30.600Z,64.11
2019-01-25T12:25:32.019Z,64.58
2019-01-25T12:26:33.144Z,64.48
2019-01-25T12:27:37.186Z,65.05
2019-01-25T12:27:49.172Z,65.24
2019-01-25T12:28:06.451Z,65.15
2019-01-25T12:28:13.955Z,64.96
2019-01-25T12:28:26.111Z,64.96
2019-01-25T12:29:24.463Z,64.77
2019-01-25T12:30:25.068Z,63.54
2019-01-25T12:31:25.808Z,63.7
2019-01-25T12:32:26.775Z,63.98
2019-01-25T12:33:27.232Z,63.89
2019-01-25T12:34:29.357Z,63.7
2019-01-25T12:35:29.206Z,63.79
2019-01-25T12:36:29.178Z,63.51
2019-01-25T12:37:29.613Z,63.98
2019-01-25T12:38:31.032Z,64.29
2019-01-25T12:39:33.927Z,64.17
2019-01-25T12:40:33.440Z,63.79
2019-01-25T12:41:34.410Z,63.26
2019-01-25T12:42:35.103Z,63.23
2019-01-25T12:43:36.243Z,62.88
2019-01-25T12:44:36.942Z,63.07
2019-01-25T12:45:37.967Z,62.37
2019-01-25T12:46:38.517Z,62.31